Tropical Cyclones
[Index]
Main Index Home Page Stock Weather Photos Extreme Storms Discussion Storm News and Storm Chasing Reports Tropical Cyclones / Hurricanes / Typhoons Weather Data and Links Wild Fires / Bushfires Weather Observation Techniques Weather Picture Catalogue Tornado Pictures and Reports Stock Video Footage and DVDs for sale
Season 1989-1990 Tropical Cyclone IKONJO Track Map
Season 1989-1990 Summaries: [BoM-AU] [JTWC-AU] [JTWC-SIO] [JTWC-SPAC] [JTWC-SH]
<<- Previous TC | JTWC 1989-1990 Season | Next TC ->>

click for intensity scale information  Lat/long Grid: Show Hide

 Date Labels: Show Hide

Joint Typhoon Warning Centre Cyclone Data

Name: IKONJO

09 May 1990 18:00 UTC to 23 May 1990 18:00 UTC

    date/time    lat    long     hPa   cat  kts
1990-05-09 18    3.0    80.9                  15          
1990-05-10 00    3.6    79.0                  15          
1990-05-10 06    4.4    76.5                  15          
1990-05-10 12    5.3    74.0                  15          
1990-05-10 18    5.8    72.4                  20          
1990-05-11 00    6.3    70.9                  20          
1990-05-11 06    6.9    69.4                  25          
1990-05-11 12    7.5    68.4                  25          
1990-05-11 18    8.2    67.4                  25          
1990-05-12 00    9.0    66.4                  30          
1990-05-12 06    9.6    65.5                  35          
1990-05-12 12    9.7    64.6                  35          
1990-05-12 18    9.4    64.3                  35          
1990-05-13 00    9.1    64.2                  35          
1990-05-13 06    9.2    64.2            1     40          
1990-05-13 12    9.5    64.1            1     45          
1990-05-13 18    9.8    63.9            1     45          
1990-05-14 00    9.9    63.8            1     45          
1990-05-14 06    9.9    63.4            1     45          
1990-05-14 12   10.0    62.7            1     45          
1990-05-14 18   10.2    61.9            1     45          
1990-05-15 00   10.5    61.1            1     45          
1990-05-15 06   10.6    60.4            1     40          
1990-05-15 12   10.5    59.7            1     40          
1990-05-15 18   10.3    59.2            1     40          
1990-05-16 00   10.2    58.7            1     40          
1990-05-16 06    9.9    57.8                  35          
1990-05-16 12    9.6    56.8            1     40          
1990-05-16 18    9.2    55.9            1     45          
1990-05-17 00    9.0    55.2            1     45          
1990-05-17 06    8.7    54.8            1     50          
1990-05-17 12    8.2    54.5            2     55          
1990-05-17 18    7.9    54.3            2     55          
1990-05-18 00    7.5    54.0            2     55          
1990-05-18 06    7.2    53.6            2     55          
1990-05-18 12    7.0    53.3            2     55          
1990-05-18 18    6.9    53.3            2     55          
1990-05-19 00    6.8    53.5            1     50          
1990-05-19 06    6.6    53.4            1     45          
1990-05-19 12    6.4    53.3                  35          
1990-05-19 18    6.2    53.2                  35          
1990-05-20 00    5.9    53.0                  35          
1990-05-20 06    5.6    52.9                  30          
1990-05-20 12    5.3    52.8                  30          
1990-05-20 18    4.8    52.8                  25          
1990-05-21 00    4.6    52.9                  25          
1990-05-21 06    4.6    53.1                  20          
1990-05-21 12    4.7    53.2                  20          
1990-05-21 18    4.9    53.1                  15          
1990-05-22 00    5.0    53.0                  15          
1990-05-22 06    5.0    53.0                  15          
1990-05-22 12    5.0    53.0                  15          
1990-05-22 18    5.0    53.0                  15          
1990-05-23 00    5.0    53.0                  15          
1990-05-23 06    5.0    53.1                  15          
1990-05-23 12    5.0    53.0                  10          
1990-05-23 18    5.0    53.0                  10          
Winds are 1-min average.

Tropical cyclone tracks developed by Michael Bath using data from the Joint Typhoon Warning Centre Best Tracks and Google Maps.


[Australian Severe Weather index] [Copyright Notice] [Email Contacts] [Search This Site] [Privacy Policy]
Document: tropical_cyclone_ikonjo.htm Updated: 18 September 2016